createdAt,value
2018-06-24T00:00:38.472Z,56.80
2018-06-24T00:01:40.435Z,56.40
2018-06-24T00:02:42.431Z,56.40
2018-06-24T00:03:44.407Z,56.40
2018-06-24T00:04:46.375Z,56.40
2018-06-24T00:05:48.362Z,56.40
2018-06-24T00:06:50.598Z,56.40
2018-06-24T00:07:52.588Z,56.40
2018-06-24T00:08:54.559Z,56.40
2018-06-24T00:09:56.554Z,56.40
2018-06-24T00:10:58.508Z,56.40
2018-06-24T00:12:00.484Z,56.40
2018-06-24T00:13:02.473Z,56.40
2018-06-24T00:14:04.441Z,56.40
2018-06-24T00:15:06.410Z,56.40
2018-06-24T00:16:08.388Z,56.40
2018-06-24T00:17:10.358Z,56.40
2018-06-24T00:18:12.321Z,56.40
2018-06-24T00:19:14.312Z,56.40
2018-06-24T00:20:16.272Z,56.40
2018-06-24T00:21:18.247Z,56.40
2018-06-24T00:22:20.221Z,57.10
2018-06-24T00:24:24.460Z,56.50
2018-06-24T00:25:26.434Z,56.50
2018-06-24T00:26:28.407Z,56.50
2018-06-24T00:27:30.378Z,56.50
2018-06-24T00:28:32.386Z,56.50
2018-06-24T00:29:34.341Z,56.50
2018-06-24T00:30:36.308Z,56.50
2018-06-24T00:31:38.280Z,56.50
2018-06-24T00:32:40.246Z,56.40
2018-06-24T00:33:42.220Z,56.40
2018-06-24T00:34:44.191Z,57.10
2018-06-24T00:35:46.145Z,56.50
2018-06-24T00:36:48.116Z,56.50
2018-06-24T00:37:50.090Z,56.50
2018-06-24T00:38:52.082Z,56.50
2018-06-24T00:39:54.062Z,57.20
2018-06-24T00:40:56.038Z,56.50
2018-06-24T00:41:57.992Z,56.50
2018-06-24T00:42:59.972Z,56.50
2018-06-24T00:44:01.972Z,56.50
2018-06-24T00:45:03.928Z,56.50
2018-06-24T00:46:05.900Z,56.50
2018-06-24T00:47:07.873Z,56.50
2018-06-24T00:48:09.835Z,56.50
2018-06-24T00:49:11.838Z,56.50
2018-06-24T00:50:13.804Z,57.30
2018-06-24T00:51:15.762Z,56.50
2018-06-24T00:52:17.745Z,56.50
2018-06-24T00:53:19.706Z,56.50
2018-06-24T00:54:21.700Z,56.50
2018-06-24T00:55:23.666Z,56.50
2018-06-24T00:56:25.636Z,56.50
2018-06-24T00:57:27.628Z,56.50
2018-06-24T00:58:29.603Z,56.50
2018-06-24T00:59:31.589Z,56.50
2018-06-24T01:00:33.560Z,56.50
2018-06-24T01:01:35.540Z,56.60
2018-06-24T01:02:37.515Z,56.60
2018-06-24T01:03:39.484Z,56.50
2018-06-24T01:04:41.468Z,56.60
2018-06-24T01:05:43.446Z,56.50
2018-06-24T01:06:45.430Z,56.50
2018-06-24T01:07:47.384Z,56.50
2018-06-24T01:08:49.370Z,56.50
2018-06-24T01:09:51.350Z,56.60
2018-06-24T01:10:53.312Z,56.50
2018-06-24T01:11:55.282Z,56.50
2018-06-24T01:12:57.250Z,56.50
2018-06-24T01:13:59.228Z,56.50
2018-06-24T01:15:01.223Z,56.60
2018-06-24T01:16:03.198Z,56.50
2018-06-24T01:17:05.173Z,56.50
2018-06-24T01:18:07.146Z,56.50
2018-06-24T01:19:09.122Z,56.50
2018-06-24T01:20:11.093Z,56.50
2018-06-24T01:21:13.077Z,56.50
2018-06-24T01:22:15.065Z,56.50
2018-06-24T01:23:17.413Z,56.50
2018-06-24T01:24:19.372Z,56.50
2018-06-24T01:25:21.361Z,56.50
2018-06-24T01:26:23.368Z,56.50
2018-06-24T01:27:25.339Z,56.50
2018-06-24T01:28:27.303Z,56.50
2018-06-24T01:29:29.265Z,56.50
2018-06-24T01:30:31.272Z,56.60
2018-06-24T01:31:33.231Z,56.50
2018-06-24T01:32:35.195Z,56.60
2018-06-24T01:33:37.153Z,56.50
2018-06-24T01:34:39.132Z,56.50
2018-06-24T01:35:41.121Z,56.50
2018-06-24T01:36:43.085Z,56.50
2018-06-24T01:38:47.303Z,56.50
2018-06-24T01:39:49.262Z,56.50
2018-06-24T01:40:51.258Z,56.60
2018-06-24T01:41:53.231Z,56.50
2018-06-24T01:42:55.197Z,56.50
2018-06-24T01:43:57.172Z,56.50
2018-06-24T01:44:59.119Z,56.50
2018-06-24T01:46:01.121Z,56.50
2018-06-24T01:47:03.082Z,56.50
2018-06-24T01:48:05.070Z,56.40
2018-06-24T01:49:07.034Z,56.50
2018-06-24T01:50:08.992Z,56.50
2018-06-24T01:51:10.998Z,56.50
2018-06-24T01:52:12.981Z,56.50
2018-06-24T01:53:14.950Z,56.50
2018-06-24T01:54:16.921Z,56.50
2018-06-24T01:55:18.908Z,56.50
2018-06-24T01:56:20.891Z,56.50
2018-06-24T01:57:22.946Z,56.50
2018-06-24T01:58:24.895Z,56.50
2018-06-24T01:59:26.874Z,56.50
2018-06-24T02:00:28.836Z,56.50
2018-06-24T02:01:30.847Z,56.50
2018-06-24T02:02:32.805Z,56.50
2018-06-24T02:03:34.789Z,56.50
2018-06-24T02:04:36.758Z,56.50
2018-06-24T02:05:38.717Z,56.40
2018-06-24T02:06:40.711Z,56.50
2018-06-24T02:07:42.677Z,56.50
2018-06-24T02:08:44.656Z,56.50
2018-06-24T02:09:46.622Z,56.40
2018-06-24T02:10:48.586Z,56.50
2018-06-24T02:11:50.575Z,56.50
2018-06-24T02:12:52.549Z,57.20
2018-06-24T02:13:54.524Z,56.50
2018-06-24T02:14:56.492Z,56.50
2018-06-24T02:15:58.471Z,56.50
2018-06-24T02:17:00.456Z,56.40
2018-06-24T02:18:02.433Z,56.40
2018-06-24T02:19:04.393Z,56.50
2018-06-24T02:20:06.359Z,56.50
2018-06-24T02:21:08.326Z,56.50
2018-06-24T02:22:10.306Z,56.40
2018-06-24T02:23:12.274Z,56.50
2018-06-24T02:24:14.245Z,56.50
2018-06-24T02:25:16.292Z,56.50
2018-06-24T02:26:18.244Z,56.50
2018-06-24T02:27:20.243Z,56.50
2018-06-24T02:28:22.219Z,56.50
2018-06-24T02:29:24.182Z,56.50
2018-06-24T02:30:26.155Z,56.50
2018-06-24T02:31:28.123Z,56.40
2018-06-24T02:32:30.126Z,56.40
2018-06-24T02:33:32.102Z,56.50
2018-06-24T02:34:34.062Z,56.50
2018-06-24T02:35:36.038Z,56.00
2018-06-24T02:36:38.020Z,56.50
2018-06-24T02:37:40.002Z,57.20
2018-06-24T02:38:41.969Z,56.40
2018-06-24T02:39:43.929Z,56.40
2018-06-24T02:40:45.889Z,56.50
2018-06-24T02:41:47.853Z,56.40
2018-06-24T02:42:49.853Z,56.30
2018-06-24T02:43:51.827Z,56.40
2018-06-24T02:44:53.792Z,56.40
2018-06-24T02:45:55.755Z,56.40
2018-06-24T02:46:57.735Z,56.40
2018-06-24T02:47:59.701Z,56.40
2018-06-24T02:49:01.687Z,56.40
2018-06-24T02:50:03.669Z,56.40
2018-06-24T02:51:05.629Z,56.30
2018-06-24T02:52:07.603Z,56.40
2018-06-24T02:53:09.583Z,56.40
2018-06-24T02:54:11.556Z,56.40
2018-06-24T02:55:13.511Z,56.40
2018-06-24T02:56:15.487Z,56.40
2018-06-24T02:57:17.480Z,56.50
2018-06-24T02:58:19.906Z,56.50
2018-06-24T02:59:21.879Z,57.20
2018-06-24T03:00:23.851Z,56.50
2018-06-24T03:01:25.833Z,56.40
2018-06-24T03:02:27.806Z,57.10
2018-06-24T03:03:29.789Z,57.10
2018-06-24T03:05:33.987Z,56.40
2018-06-24T03:06:35.959Z,56.50
2018-06-24T03:07:37.927Z,56.40
2018-06-24T03:08:39.907Z,56.40
2018-06-24T03:09:41.888Z,56.40
2018-06-24T03:10:43.861Z,56.50
2018-06-24T03:11:45.814Z,56.50
2018-06-24T03:12:47.785Z,56.50
2018-06-24T03:13:49.765Z,56.50
2018-06-24T03:14:51.744Z,56.50
2018-06-24T03:15:53.706Z,56.60
2018-06-24T03:16:55.773Z,56.60
2018-06-24T03:17:57.745Z,56.60
2018-06-24T03:18:59.733Z,56.60
2018-06-24T03:20:01.717Z,56.50
2018-06-24T03:21:03.682Z,56.50
2018-06-24T03:22:05.643Z,56.60
2018-06-24T03:23:07.623Z,56.60
2018-06-24T03:24:09.610Z,56.60
2018-06-24T03:25:11.565Z,56.60
2018-06-24T03:26:13.520Z,56.60
2018-06-24T03:27:15.508Z,57.30
2018-06-24T03:28:17.453Z,56.60
2018-06-24T03:29:19.445Z,56.60
2018-06-24T03:30:21.413Z,56.60
2018-06-24T03:31:23.392Z,56.60
2018-06-24T03:32:25.373Z,56.60
2018-06-24T03:34:29.584Z,56.60
2018-06-24T03:35:31.546Z,56.60
2018-06-24T03:36:33.511Z,56.70
2018-06-24T03:38:37.694Z,56.60
2018-06-24T03:39:39.688Z,56.50
2018-06-24T03:40:41.656Z,56.60
2018-06-24T03:41:43.633Z,56.60
2018-06-24T03:42:45.607Z,56.70
2018-06-24T03:43:47.581Z,56.60
2018-06-24T03:44:49.565Z,56.60
2018-06-24T03:45:51.530Z,56.60
2018-06-24T03:46:53.488Z,57.30
2018-06-24T03:47:55.482Z,56.60
2018-06-24T03:48:57.456Z,56.60
2018-06-24T03:49:59.442Z,56.60
2018-06-24T03:51:01.411Z,56.60
2018-06-24T03:52:03.394Z,56.60
2018-06-24T03:53:05.354Z,56.60
2018-06-24T03:54:07.325Z,56.60
2018-06-24T03:55:09.302Z,56.60
2018-06-24T03:56:11.733Z,56.60
2018-06-24T03:57:13.240Z,56.60
2018-06-24T03:58:15.198Z,56.60
2018-06-24T03:59:17.160Z,56.60
2018-06-24T04:00:19.153Z,56.30
2018-06-24T04:01:21.124Z,56.60
2018-06-24T04:02:23.094Z,56.60
2018-06-24T04:03:25.062Z,56.00
2018-06-24T04:04:27.033Z,56.60
2018-06-24T04:05:29.012Z,56.60
2018-06-24T04:06:30.976Z,56.60
2018-06-24T04:07:32.943Z,56.60
2018-06-24T04:08:34.908Z,56.60
2018-06-24T04:09:36.882Z,56.60
2018-06-24T04:10:38.855Z,56.60
2018-06-24T04:11:40.808Z,56.60
2018-06-24T04:12:42.782Z,56.60
2018-06-24T04:13:44.748Z,56.60
2018-06-24T04:14:46.752Z,56.60
2018-06-24T04:15:48.716Z,56.60
2018-06-24T04:16:50.688Z,56.70
2018-06-24T04:17:52.753Z,56.50
2018-06-24T04:18:54.696Z,56.60
2018-06-24T04:19:56.692Z,56.60
2018-06-24T04:20:58.673Z,56.60
2018-06-24T04:22:00.632Z,56.60
2018-06-24T04:23:02.626Z,56.60
2018-06-24T04:24:04.588Z,56.60
2018-06-24T04:25:06.569Z,56.60
2018-06-24T04:26:08.538Z,56.60
2018-06-24T04:27:10.504Z,56.60
2018-06-24T04:28:12.476Z,56.60
2018-06-24T04:29:14.441Z,56.60
2018-06-24T04:30:16.432Z,56.60
2018-06-24T04:31:18.414Z,56.60
2018-06-24T04:32:20.368Z,56.60
2018-06-24T04:33:22.354Z,56.60
2018-06-24T04:34:24.318Z,56.60
2018-06-24T04:35:26.292Z,56.70
2018-06-24T04:36:28.272Z,56.70
2018-06-24T04:37:30.244Z,56.60
2018-06-24T04:38:32.224Z,56.70
2018-06-24T04:39:34.194Z,56.60
2018-06-24T04:40:36.188Z,56.70
2018-06-24T04:41:38.150Z,56.70
2018-06-24T04:42:40.116Z,56.70
2018-06-24T04:43:42.348Z,56.60
2018-06-24T04:44:44.319Z,55.50
2018-06-24T04:45:46.291Z,55.70
2018-06-24T04:46:48.250Z,56.30
2018-06-24T04:47:50.198Z,56.70
2018-06-24T04:48:52.176Z,56.90
2018-06-24T04:49:54.122Z,57.30
2018-06-24T04:50:56.120Z,57.70
2018-06-24T04:51:58.089Z,58.00
2018-06-24T04:53:00.061Z,58.40
2018-06-24T04:54:02.029Z,58.60
2018-06-24T04:56:06.250Z,58.60
2018-06-24T04:57:08.218Z,58.80
2018-06-24T04:58:10.195Z,58.80
2018-06-24T04:59:12.152Z,58.90
2018-06-24T05:00:14.132Z,59.20
2018-06-24T05:01:16.097Z,59.30
2018-06-24T05:02:18.071Z,59.50
2018-06-24T05:03:20.013Z,59.60
2018-06-24T05:04:21.994Z,59.80
2018-06-24T05:05:23.953Z,59.90
2018-06-24T05:06:25.946Z,59.90
2018-06-24T05:07:28.165Z,59.90
2018-06-24T05:08:30.132Z,60.20
2018-06-24T05:09:32.094Z,60.10
2018-06-24T05:10:34.065Z,60.40
2018-06-24T05:11:36.062Z,60.40
2018-06-24T05:12:38.015Z,60.50
2018-06-24T05:13:39.982Z,60.70
2018-06-24T05:14:41.946Z,60.80
2018-06-24T05:15:43.894Z,61.20
2018-06-24T05:16:45.848Z,61.30
2018-06-24T05:17:47.804Z,61.50
2018-06-24T05:18:49.764Z,61.30
2018-06-24T05:19:51.724Z,61.50
2018-06-24T05:20:53.704Z,61.70
2018-06-24T05:21:55.666Z,62.60
2018-06-24T05:22:57.636Z,61.80
2018-06-24T05:23:59.586Z,61.60
2018-06-24T05:25:01.558Z,62.00
2018-06-24T05:26:03.501Z,61.80
2018-06-24T05:27:05.478Z,62.10
2018-06-24T05:28:07.437Z,61.90
2018-06-24T05:29:09.382Z,61.80
2018-06-24T05:30:11.369Z,62.00
2018-06-24T05:31:13.334Z,62.00
2018-06-24T05:32:15.309Z,62.00
2018-06-24T05:33:17.255Z,62.20
2018-06-24T05:34:19.224Z,62.10
2018-06-24T05:35:21.170Z,62.20
2018-06-24T05:36:23.134Z,62.20
2018-06-24T05:37:25.132Z,62.10
2018-06-24T05:38:27.082Z,62.00
2018-06-24T05:39:29.044Z,62.00
2018-06-24T05:40:31.003Z,62.00
2018-06-24T05:41:33.014Z,62.20
2018-06-24T05:42:34.972Z,62.40
2018-06-24T05:43:36.924Z,62.30
2018-06-24T05:44:38.896Z,62.20
2018-06-24T05:45:40.836Z,62.20
2018-06-24T05:46:42.794Z,62.30
2018-06-24T05:47:44.815Z,62.40
2018-06-24T05:48:46.834Z,62.30
2018-06-24T05:49:48.748Z,62.30
2018-06-24T05:50:50.726Z,62.20
2018-06-24T05:51:52.688Z,62.20
2018-06-24T05:52:54.674Z,62.20
2018-06-24T05:53:56.640Z,62.10
2018-06-24T05:54:58.585Z,62.20
2018-06-24T05:56:00.556Z,62.30
2018-06-24T05:57:02.543Z,62.40
2018-06-24T05:58:04.505Z,62.50
2018-06-24T05:59:06.468Z,62.50
2018-06-24T06:00:08.536Z,62.30
2018-06-24T06:01:10.490Z,62.50
2018-06-24T06:02:12.455Z,63.30
2018-06-24T06:03:14.424Z,62.00
2018-06-24T06:04:16.379Z,61.80
2018-06-24T06:05:18.352Z,61.80
2018-06-24T06:06:20.331Z,62.00
2018-06-24T06:07:22.281Z,62.00
2018-06-24T06:08:24.253Z,62.20
2018-06-24T06:09:26.230Z,61.70
2018-06-24T06:10:28.303Z,61.80
2018-06-24T06:11:30.419Z,61.70
2018-06-24T06:12:32.378Z,61.80
2018-06-24T06:13:34.380Z,62.00
2018-06-24T06:14:36.326Z,61.90
2018-06-24T06:15:38.281Z,61.90
2018-06-24T06:16:40.245Z,61.90
2018-06-24T06:17:42.211Z,62.00
2018-06-24T06:18:44.204Z,62.80
2018-06-24T06:19:46.160Z,62.00
2018-06-24T06:20:48.138Z,62.00
2018-06-24T06:21:50.147Z,61.80
2018-06-24T06:22:52.046Z,61.70
2018-06-24T06:23:54.010Z,61.80
2018-06-24T06:24:55.971Z,61.50
2018-06-24T06:25:57.933Z,61.70
2018-06-24T06:26:59.897Z,61.90
2018-06-24T06:28:01.856Z,62.00
2018-06-24T06:29:03.825Z,62.30
2018-06-24T06:30:05.794Z,62.10
2018-06-24T06:31:07.770Z,62.20
2018-06-24T06:32:09.726Z,62.30
2018-06-24T06:33:11.671Z,62.20
2018-06-24T06:34:13.634Z,62.30
2018-06-24T06:35:15.605Z,62.40
2018-06-24T06:36:17.577Z,62.10
2018-06-24T06:37:19.532Z,62.20
2018-06-24T06:38:21.511Z,62.30
2018-06-24T06:39:23.496Z,62.50
2018-06-24T06:40:25.465Z,63.00
2018-06-24T06:41:27.432Z,63.30
2018-06-24T06:42:29.376Z,63.30
2018-06-24T06:43:31.334Z,63.20
2018-06-24T06:44:33.325Z,64.00
2018-06-24T06:45:35.399Z,63.40
2018-06-24T06:46:37.246Z,63.10
2018-06-24T06:47:39.204Z,63.50
2018-06-24T06:48:41.180Z,63.30
2018-06-24T06:49:43.148Z,63.40
2018-06-24T06:50:45.108Z,63.90
2018-06-24T06:51:47.259Z,64.00
2018-06-24T06:52:49.218Z,64.10
2018-06-24T06:53:51.162Z,63.60
2018-06-24T06:54:53.177Z,63.10
2018-06-24T06:55:55.127Z,62.70
2018-06-24T06:56:57.088Z,62.50
2018-06-24T06:57:59.052Z,62.60
2018-06-24T06:59:01.019Z,63.40
2018-06-24T07:00:03.003Z,62.80
2018-06-24T07:01:04.963Z,62.50
2018-06-24T07:02:06.937Z,62.80
2018-06-24T07:03:08.923Z,62.90
2018-06-24T07:04:10.898Z,62.80
2018-06-24T07:05:12.867Z,62.80
2018-06-24T07:06:14.845Z,63.00
2018-06-24T07:07:16.807Z,62.80
2018-06-24T07:08:18.811Z,63.20
2018-06-24T07:09:20.779Z,63.20
2018-06-24T07:10:22.765Z,63.30
2018-06-24T07:11:24.720Z,63.30
2018-06-24T07:12:26.683Z,63.00
2018-06-24T07:13:28.661Z,62.70
2018-06-24T07:14:30.633Z,62.70
2018-06-24T07:15:32.623Z,62.50
2018-06-24T07:16:34.575Z,62.60
2018-06-24T07:17:36.589Z,62.70
2018-06-24T07:18:38.553Z,62.60
2018-06-24T07:19:40.519Z,62.20
2018-06-24T07:20:42.491Z,62.20
2018-06-24T07:21:44.459Z,62.20
2018-06-24T07:22:46.433Z,62.00
2018-06-24T07:23:48.399Z,62.10
2018-06-24T07:24:50.399Z,62.00
2018-06-24T07:25:52.333Z,62.00
2018-06-24T07:26:54.297Z,62.10
2018-06-24T07:27:56.265Z,62.60
2018-06-24T07:28:58.217Z,61.80
2018-06-24T07:30:00.281Z,61.70
2018-06-24T07:31:02.226Z,62.00
2018-06-24T07:32:04.193Z,62.10
2018-06-24T07:33:06.205Z,62.10
2018-06-24T07:34:08.125Z,62.20
2018-06-24T07:35:10.093Z,62.20
2018-06-24T07:36:12.047Z,61.80
2018-06-24T07:37:14.015Z,61.20
2018-06-24T07:38:15.969Z,60.90
2018-06-24T07:39:17.966Z,60.70
2018-06-24T07:40:19.915Z,60.70
2018-06-24T07:41:21.887Z,60.90
2018-06-24T07:42:23.844Z,60.90
2018-06-24T07:43:25.823Z,61.60
2018-06-24T07:44:27.781Z,61.00
2018-06-24T07:45:29.747Z,61.50
2018-06-24T07:46:31.711Z,61.00
2018-06-24T07:47:33.671Z,61.20
2018-06-24T07:48:35.641Z,61.20
2018-06-24T07:49:37.616Z,61.10
2018-06-24T07:50:39.583Z,60.50
2018-06-24T07:51:41.561Z,60.00
2018-06-24T07:52:43.505Z,60.60
2018-06-24T07:53:45.488Z,60.40
2018-06-24T07:54:47.450Z,60.30
2018-06-24T07:55:49.454Z,60.50
2018-06-24T07:56:51.412Z,60.70
2018-06-24T07:57:53.379Z,61.00
2018-06-24T07:58:55.353Z,61.30
2018-06-24T07:59:57.325Z,61.80
2018-06-24T08:00:59.299Z,61.70
2018-06-24T08:02:01.265Z,61.50
2018-06-24T08:03:03.251Z,61.60
2018-06-24T08:04:05.221Z,61.60
2018-06-24T08:05:07.204Z,61.50
2018-06-24T08:06:09.149Z,61.50
2018-06-24T08:07:11.119Z,61.60
2018-06-24T08:08:13.064Z,61.40
2018-06-24T08:09:15.037Z,62.70
2018-06-24T08:10:17.006Z,61.80
2018-06-24T08:11:19.014Z,61.30
2018-06-24T08:12:20.944Z,61.20
2018-06-24T08:13:22.921Z,61.80
2018-06-24T08:14:24.877Z,61.80
2018-06-24T08:15:26.867Z,61.50
2018-06-24T08:16:28.842Z,61.70
2018-06-24T08:17:30.831Z,61.70
2018-06-24T08:18:32.781Z,61.50
2018-06-24T08:19:34.751Z,61.50
2018-06-24T08:20:36.706Z,61.60
2018-06-24T08:21:38.668Z,61.20
2018-06-24T08:22:40.636Z,61.30
2018-06-24T08:23:42.599Z,61.30
2018-06-24T08:24:44.573Z,61.50
2018-06-24T08:26:48.773Z,62.30
2018-06-24T08:27:50.735Z,61.20
2018-06-24T08:28:52.720Z,61.30
2018-06-24T08:29:54.681Z,61.80
2018-06-24T08:30:56.660Z,61.30
2018-06-24T08:31:58.624Z,61.50
2018-06-24T08:33:00.586Z,61.80
2018-06-24T08:34:02.558Z,61.80
2018-06-24T08:35:04.536Z,61.30
2018-06-24T08:36:06.492Z,61.20
2018-06-24T08:37:08.475Z,61.20
2018-06-24T08:38:10.433Z,60.70
2018-06-24T08:39:12.400Z,60.50
2018-06-24T08:40:14.375Z,60.50
2018-06-24T08:41:16.340Z,60.70
2018-06-24T08:42:18.302Z,59.90
2018-06-24T08:43:20.280Z,60.20
2018-06-24T08:44:22.234Z,60.00
2018-06-24T08:45:24.233Z,59.90
2018-06-24T08:46:26.189Z,60.20
2018-06-24T08:47:28.161Z,59.90
2018-06-24T08:48:30.125Z,60.50
2018-06-24T08:49:32.072Z,59.70
2018-06-24T08:50:34.041Z,60.20
2018-06-24T08:51:35.998Z,60.80
2018-06-24T08:52:37.957Z,61.00
2018-06-24T08:53:39.922Z,61.00
2018-06-24T08:54:41.905Z,61.00
2018-06-24T08:55:43.862Z,60.50
2018-06-24T08:56:45.813Z,60.00
2018-06-24T08:57:47.802Z,60.50
2018-06-24T08:58:49.751Z,59.40
2018-06-24T08:59:51.712Z,59.60
2018-06-24T09:00:53.690Z,59.50
2018-06-24T09:01:55.666Z,59.40
2018-06-24T09:02:57.624Z,59.30
2018-06-24T09:03:59.592Z,59.20
2018-06-24T09:05:01.561Z,59.20
2018-06-24T09:06:03.546Z,59.10
2018-06-24T09:07:05.500Z,58.80
2018-06-24T09:08:07.485Z,58.80
2018-06-24T09:09:09.431Z,59.10
2018-06-24T09:10:11.425Z,59.60
2018-06-24T09:11:13.408Z,59.10
2018-06-24T09:12:15.361Z,58.90
2018-06-24T09:13:17.332Z,58.90
2018-06-24T09:14:19.303Z,58.80
2018-06-24T09:15:21.282Z,59.00
2018-06-24T09:16:23.257Z,59.50
2018-06-24T09:17:25.220Z,59.30
2018-06-24T09:18:27.192Z,59.20
2018-06-24T09:19:29.146Z,58.90
2018-06-24T09:20:31.122Z,58.90
2018-06-24T09:21:33.084Z,58.80
2018-06-24T09:23:37.297Z,59.20
2018-06-24T09:24:39.269Z,58.70
2018-06-24T09:25:41.239Z,59.60
2018-06-24T09:26:43.231Z,58.80
2018-06-24T09:27:45.239Z,58.90
2018-06-24T09:28:47.471Z,58.70
2018-06-24T09:29:49.455Z,58.70
2018-06-24T09:30:51.455Z,58.70
2018-06-24T09:31:53.907Z,58.70
2018-06-24T09:32:56.095Z,59.00
2018-06-24T09:33:58.067Z,59.10
2018-06-24T09:35:00.037Z,59.00
2018-06-24T09:36:02.029Z,58.60
2018-06-24T09:37:03.991Z,58.60
2018-06-24T09:38:05.957Z,58.60
2018-06-24T09:39:07.911Z,58.20
2018-06-24T09:40:09.885Z,58.00
2018-06-24T09:41:11.869Z,58.10
2018-06-24T09:42:13.820Z,58.10
2018-06-24T09:43:15.787Z,58.50
2018-06-24T09:44:17.736Z,58.40
2018-06-24T09:45:19.701Z,58.40
2018-06-24T09:46:21.681Z,58.40
2018-06-24T09:47:23.667Z,58.60
2018-06-24T09:48:25.610Z,58.50
2018-06-24T09:49:27.592Z,58.70
2018-06-24T09:50:29.573Z,58.80
2018-06-24T09:51:31.557Z,58.90
2018-06-24T09:52:33.535Z,59.30
2018-06-24T09:53:35.623Z,59.40
2018-06-24T09:54:37.572Z,59.50
2018-06-24T09:55:39.544Z,59.60
2018-06-24T09:56:41.511Z,59.80
2018-06-24T09:57:43.464Z,59.70
2018-06-24T09:58:45.443Z,59.90
2018-06-24T09:59:47.407Z,60.10
2018-06-24T10:00:49.353Z,60.20
2018-06-24T10:01:51.583Z,59.60
2018-06-24T10:02:53.559Z,59.30
2018-06-24T10:03:55.511Z,59.20
2018-06-24T10:04:57.481Z,59.30
2018-06-24T10:05:59.459Z,59.10
2018-06-24T10:07:01.427Z,58.80
2018-06-24T10:08:03.398Z,59.10
2018-06-24T10:09:05.355Z,58.70
2018-06-24T10:10:07.706Z,59.30
2018-06-24T10:11:09.689Z,59.80
2018-06-24T10:12:11.658Z,59.00
2018-06-24T10:13:13.618Z,59.00
2018-06-24T10:14:15.603Z,59.00
2018-06-24T10:15:17.548Z,58.70
2018-06-24T10:16:19.502Z,58.60
2018-06-24T10:17:21.508Z,58.70
2018-06-24T10:18:23.481Z,59.20
2018-06-24T10:19:25.459Z,59.30
2018-06-24T10:20:27.422Z,59.40
2018-06-24T10:21:29.369Z,60.20
2018-06-24T10:22:31.372Z,59.20
2018-06-24T10:23:33.333Z,59.30
2018-06-24T10:24:35.308Z,59.70
2018-06-24T10:25:37.271Z,59.70
2018-06-24T10:26:39.256Z,59.70
2018-06-24T10:27:41.258Z,59.60
2018-06-24T10:28:43.272Z,59.10
2018-06-24T10:29:45.238Z,59.10
2018-06-24T10:30:47.303Z,59.00
2018-06-24T10:31:49.236Z,59.10
2018-06-24T10:32:51.234Z,59.30
2018-06-24T10:33:53.194Z,59.20
2018-06-24T10:34:55.159Z,59.30
2018-06-24T10:35:57.112Z,58.90
2018-06-24T10:36:59.073Z,59.00
2018-06-24T10:38:01.042Z,58.80
2018-06-24T10:39:03.016Z,59.00
2018-06-24T10:40:05.014Z,59.10
2018-06-24T10:41:07.006Z,58.90
2018-06-24T10:42:08.933Z,59.20
2018-06-24T10:43:10.937Z,58.90
2018-06-24T10:44:12.928Z,59.20
2018-06-24T10:45:14.905Z,59.40
2018-06-24T10:46:16.861Z,59.90
2018-06-24T10:47:18.858Z,59.60
2018-06-24T10:48:20.852Z,59.90
2018-06-24T10:49:22.810Z,60.20
2018-06-24T10:50:24.762Z,60.00
2018-06-24T10:51:26.748Z,60.20
2018-06-24T10:52:28.698Z,61.10
2018-06-24T10:54:32.908Z,61.30
2018-06-24T10:55:34.866Z,61.20
2018-06-24T10:56:36.820Z,61.20
2018-06-24T10:57:38.779Z,61.80
2018-06-24T10:58:40.766Z,62.20
2018-06-24T10:59:42.739Z,61.80
2018-06-24T11:00:44.717Z,61.80
2018-06-24T11:01:46.678Z,61.90
2018-06-24T11:02:48.630Z,62.20
2018-06-24T11:03:50.601Z,62.60
2018-06-24T11:04:52.553Z,63.00
2018-06-24T11:05:54.512Z,62.80
2018-06-24T11:06:56.486Z,63.10
2018-06-24T11:07:58.436Z,63.30
2018-06-24T11:09:00.428Z,63.30
2018-06-24T11:10:02.415Z,63.20
2018-06-24T11:12:06.608Z,63.10
2018-06-24T11:13:08.565Z,63.10
2018-06-24T11:15:12.752Z,63.60
2018-06-24T11:16:14.721Z,63.50
2018-06-24T11:17:16.691Z,63.80
2018-06-24T11:18:18.651Z,63.50
2018-06-24T11:19:20.629Z,63.70
2018-06-24T11:20:22.605Z,63.50
2018-06-24T11:21:24.546Z,63.60
2018-06-24T11:22:26.500Z,63.80
2018-06-24T11:23:28.460Z,63.40
2018-06-24T11:24:30.441Z,63.30
2018-06-24T11:25:32.405Z,63.30
2018-06-24T11:26:34.355Z,63.60
2018-06-24T11:27:36.435Z,63.80
2018-06-24T11:28:38.386Z,63.30
2018-06-24T11:29:40.353Z,63.20
2018-06-24T11:30:42.327Z,62.70
2018-06-24T11:31:44.304Z,62.60
2018-06-24T11:32:46.273Z,62.70
2018-06-24T11:33:48.235Z,63.10
2018-06-24T11:34:50.219Z,62.10
2018-06-24T11:35:52.176Z,61.70
2018-06-24T11:36:54.198Z,62.00
2018-06-24T11:37:56.097Z,61.30
2018-06-24T11:38:58.067Z,61.20
2018-06-24T11:40:00.039Z,61.20
2018-06-24T11:41:01.990Z,61.10
2018-06-24T11:42:03.974Z,61.00
2018-06-24T11:43:05.952Z,61.00
2018-06-24T11:44:07.926Z,61.00
2018-06-24T11:45:09.932Z,61.70
2018-06-24T11:46:11.895Z,61.80
2018-06-24T11:47:13.861Z,61.70
2018-06-24T11:48:15.845Z,61.80
2018-06-24T11:49:17.814Z,61.90
2018-06-24T11:50:19.773Z,61.20
2018-06-24T11:51:21.743Z,61.30
2018-06-24T11:52:23.745Z,61.40
2018-06-24T11:53:25.714Z,61.70
2018-06-24T11:54:27.710Z,62.00
2018-06-24T11:55:29.658Z,62.70
2018-06-24T11:56:31.625Z,63.00
2018-06-24T11:57:33.594Z,63.20
2018-06-24T11:58:35.570Z,63.40
2018-06-24T11:59:37.556Z,63.40
2018-06-24T12:00:39.531Z,63.60
2018-06-24T12:01:41.504Z,62.70
2018-06-24T12:02:43.478Z,62.10
2018-06-24T12:03:45.437Z,62.50
2018-06-24T12:04:47.387Z,61.50
2018-06-24T12:05:49.344Z,61.20
2018-06-24T12:06:51.342Z,61.10
2018-06-24T12:07:53.286Z,60.90
2018-06-24T12:08:55.258Z,60.80
2018-06-24T12:09:57.235Z,60.70
2018-06-24T12:10:59.205Z,60.50
2018-06-24T12:12:01.174Z,60.40
2018-06-24T12:13:03.159Z,60.40
2018-06-24T12:14:05.125Z,60.20
2018-06-24T12:15:07.096Z,60.20
2018-06-24T12:16:09.061Z,60.20
2018-06-24T12:17:11.015Z,60.10
2018-06-24T12:18:13.027Z,60.00
2018-06-24T12:19:14.968Z,59.90
2018-06-24T12:20:16.946Z,59.90
2018-06-24T12:21:19.012Z,59.80
2018-06-24T12:22:20.963Z,59.80
2018-06-24T12:23:22.944Z,59.70
2018-06-24T12:24:24.932Z,61.50
2018-06-24T12:25:26.924Z,62.30
2018-06-24T12:26:28.895Z,62.00
2018-06-24T12:27:30.863Z,61.70
2018-06-24T12:28:32.838Z,61.70
2018-06-24T12:29:34.824Z,62.00
2018-06-24T12:30:36.862Z,61.90
2018-06-24T12:31:38.786Z,62.00
2018-06-24T12:32:40.743Z,62.90
2018-06-24T12:33:42.726Z,62.90
2018-06-24T12:34:44.699Z,63.60
2018-06-24T12:35:46.664Z,63.30
2018-06-24T12:36:48.645Z,63.50
2018-06-24T12:37:50.621Z,63.40
2018-06-24T12:38:52.585Z,62.50
2018-06-24T12:39:54.582Z,63.30
2018-06-24T12:40:56.551Z,63.10
2018-06-24T12:41:58.521Z,63.50
2018-06-24T12:43:00.504Z,64.20
2018-06-24T12:44:02.488Z,64.00
2018-06-24T12:45:04.498Z,63.60
2018-06-24T12:46:06.462Z,63.20
2018-06-24T12:47:08.430Z,63.80
2018-06-24T12:48:11.378Z,63.70
2018-06-24T12:49:13.339Z,63.70
2018-06-24T12:50:15.313Z,64.00
2018-06-24T12:51:17.299Z,63.80
2018-06-24T12:52:19.261Z,63.60
2018-06-24T12:53:21.237Z,63.30
2018-06-24T12:54:23.204Z,63.50
2018-06-24T12:55:25.211Z,63.30
2018-06-24T12:56:27.209Z,63.30
2018-06-24T12:57:29.192Z,63.60
2018-06-24T12:58:31.143Z,64.10
2018-06-24T12:59:33.238Z,63.90
2018-06-24T13:00:35.987Z,63.60
2018-06-24T13:01:37.464Z,64.10
2018-06-24T13:02:39.449Z,64.10
2018-06-24T13:03:41.391Z,64.40
2018-06-24T13:04:43.365Z,64.90
2018-06-24T13:05:45.351Z,65.30
2018-06-24T13:06:47.353Z,65.40
2018-06-24T13:07:49.339Z,65.10
2018-06-24T13:08:51.318Z,65.30
2018-06-24T13:09:53.290Z,65.90
2018-06-24T13:10:55.263Z,66.30
2018-06-24T13:11:57.239Z,66.30
2018-06-24T13:12:59.209Z,66.30
2018-06-24T13:14:01.181Z,66.10
2018-06-24T13:15:03.149Z,65.90
2018-06-24T13:16:05.152Z,66.10
2018-06-24T13:17:07.123Z,66.40
2018-06-24T13:18:09.089Z,66.40
2018-06-24T13:19:11.057Z,66.40
2018-06-24T13:20:13.029Z,66.10
2018-06-24T13:21:15.162Z,66.30
2018-06-24T13:22:17.014Z,65.90
2018-06-24T13:23:19.027Z,65.60
2018-06-24T13:24:20.978Z,65.80
2018-06-24T13:25:22.966Z,65.50
2018-06-24T13:26:24.952Z,65.70
2018-06-24T13:27:26.950Z,65.70
2018-06-24T13:28:28.942Z,65.30
2018-06-24T13:29:30.906Z,65.50